地図

経路データ

SID SEASON NUMBER BASIN SUBBASIN NAME ISO_TIME NATURE LAT LON WMO_WIND WMO_PRES WMO_AGENCY TRACK_TYPE DIST2LAND LANDFALL IFLAG USA_AGENCY USA_ATCF_ID USA_LAT USA_LON USA_RECORD USA_STATUS USA_WIND USA_PRES USA_SSHS USA_R34_NE USA_R34_SE USA_R34_SW USA_R34_NW USA_R50_NE USA_R50_SE USA_R50_SW USA_R50_NW USA_R64_NE USA_R64_SE USA_R64_SW USA_R64_NW USA_POCI USA_ROCI USA_RMW USA_EYE TOKYO_LAT TOKYO_LON TOKYO_GRADE TOKYO_WIND TOKYO_PRES TOKYO_R50_DIR TOKYO_R50_LONG TOKYO_R50_SHORT TOKYO_R30_DIR TOKYO_R30_LONG TOKYO_R30_SHORT TOKYO_LAND CMA_LAT CMA_LON CMA_CAT CMA_WIND CMA_PRES HKO_LAT HKO_LON HKO_CAT HKO_WIND HKO_PRES NEWDELHI_LAT NEWDELHI_LON NEWDELHI_GRADE NEWDELHI_WIND NEWDELHI_PRES NEWDELHI_CI NEWDELHI_DP NEWDELHI_POCI REUNION_LAT REUNION_LON REUNION_TYPE REUNION_WIND REUNION_PRES REUNION_TNUM REUNION_CI REUNION_RMW REUNION_R34_NE REUNION_R34_SE REUNION_R34_SW REUNION_R34_NW REUNION_R50_NE REUNION_R50_SE REUNION_R50_SW REUNION_R50_NW REUNION_R64_NE REUNION_R64_SE REUNION_R64_SW REUNION_R64_NW BOM_LAT BOM_LON BOM_TYPE BOM_WIND BOM_PRES BOM_TNUM BOM_CI BOM_RMW BOM_R34_NE BOM_R34_SE BOM_R34_SW BOM_R34_NW BOM_R50_NE BOM_R50_SE BOM_R50_SW BOM_R50_NW BOM_R64_NE BOM_R64_SE BOM_R64_SW BOM_R64_NW BOM_ROCI BOM_POCI BOM_EYE BOM_POS_METHOD BOM_PRES_METHOD NADI_LAT NADI_LON NADI_CAT NADI_WIND NADI_PRES WELLINGTON_LAT WELLINGTON_LON WELLINGTON_WIND WELLINGTON_PRES DS824_LAT DS824_LON DS824_STAGE DS824_WIND DS824_PRES TD9636_LAT TD9636_LON TD9636_STAGE TD9636_WIND TD9636_PRES TD9635_LAT TD9635_LON TD9635_WIND TD9635_PRES TD9635_ROCI NEUMANN_LAT NEUMANN_LON NEUMANN_CLASS NEUMANN_WIND NEUMANN_PRES MLC_LAT MLC_LON MLC_CLASS MLC_WIND MLC_PRES USA_GUST BOM_GUST BOM_GUST_PER REUNION_GUST REUNION_GUST_PER USA_SEAHGT USA_SEARAD_NE USA_SEARAD_SE USA_SEARAD_SW USA_SEARAD_NW STORM_SPEED STORM_DIR
1998259N10335 1998 63 NA NA GEORGES 1998-09-15 12:00:00 TS 9.70000 -25.1000 30 1009 hurdat_atl main 955 955 O_____________ hurdat_atl AL071998 9.70000 -25.1000 TD 30 1009 -1 13 274
1998259N10335 1998 63 NA NA GEORGES 1998-09-15 15:00:00 TS 9.74270 -25.7800 main 1028 1028 P_____________ AL071998 9.74270 -25.7800 TD 30 1009 -1 14 274
1998259N10335 1998 63 NA NA GEORGES 1998-09-15 18:00:00 TS 9.80000 -26.5000 30 1009 hurdat_atl main 1098 1098 O_____________ hurdat_atl AL071998 9.80000 -26.5000 TD 30 1009 -1 15 275
1998259N10335 1998 63 NA NA GEORGES 1998-09-15 21:00:00 TS 9.88491 -27.2851 main 1179 1179 P_____________ AL071998 9.88491 -27.2851 TD 30 1009 -1 16 277
1998259N10335 1998 63 NA NA GEORGES 1998-09-16 00:00:00 TS 10.0000 -28.1000 30 1009 hurdat_atl main 1262 1262 O_____________ hurdat_atl AL071998 10.0000 -28.1000 TD 30 1009 -1 16 279
1998259N10335 1998 63 NA NA GEORGES 1998-09-16 03:00:00 TS 10.1423 -28.9000 main 1341 1336 P_____________ AL071998 10.1423 -28.9000 TD 30 1009 -1 16 281
1998259N10335 1998 63 NA NA GEORGES 1998-09-16 06:00:00 TS 10.3000 -29.7000 30 1009 hurdat_atl main 1413 1413 O_____________ hurdat_atl AL071998 10.3000 -29.7000 TD 30 1009 -1 16 281
1998259N10335 1998 63 NA NA GEORGES 1998-09-16 09:00:00 TS 10.4423 -30.5001 main 1491 1487 P_____________ AL071998 10.4423 -30.5001 TD 32 1007 -1 16 281
1998259N10335 1998 63 NA NA GEORGES 1998-09-16 12:00:00 TS 10.6000 -31.3000 35 1005 hurdat_atl main 1566 1566 O_____________ hurdat_atl AL071998 10.6000 -31.3000 TS 35 1005 0 16 283
1998259N10335 1998 63 NA NA GEORGES 1998-09-16 15:00:00 TS 10.7997 -32.0925 main 1642 1642 P_____________ AL071998 10.7997 -32.0925 TS 35 1004 0 16 284
1998259N10335 1998 63 NA NA GEORGES 1998-09-16 18:00:00 TS 11.0000 -32.9000 35 1003 hurdat_atl main 1720 1707 O_____________ hurdat_atl AL071998 11.0000 -32.9000 TS 35 1003 0 17 282
1998259N10335 1998 63 NA NA GEORGES 1998-09-16 21:00:00 TS 11.1498 -33.7427 main 1707 1692 P_____________ AL071998 11.1498 -33.7427 TS 40 1001 0 17 280
1998259N10335 1998 63 NA NA GEORGES 1998-09-17 00:00:00 TS 11.3000 -34.6000 45 1000 hurdat_atl main 1692 1681 O_____________ hurdat_atl AL071998 11.3000 -34.6000 TS 45 1000 0 17 282
1998259N10335 1998 63 NA NA GEORGES 1998-09-17 03:00:00 TS 11.4997 -35.4425 main 1685 1675 P_____________ AL071998 11.4997 -35.4425 TS 47 998 0 17 284
1998259N10335 1998 63 NA NA GEORGES 1998-09-17 06:00:00 TS 11.7000 -36.3000 50 997 hurdat_atl main 1681 1673 O_____________ hurdat_atl AL071998 11.7000 -36.3000 TS 50 997 0 17 282
1998259N10335 1998 63 NA NA GEORGES 1998-09-17 09:00:00 TS 11.8572 -37.1852 main 1683 1674 P_____________ AL071998 11.8572 -37.1852 TS 52 995 0 18 280
1998259N10335 1998 63 NA NA GEORGES 1998-09-17 12:00:00 TS 12.0000 -38.1000 55 994 hurdat_atl main 1680 1611 O_____________ hurdat_atl AL071998 12.0000 -38.1000 TS 55 994 0 18 279
1998259N10335 1998 63 NA NA GEORGES 1998-09-17 15:00:00 TS 12.1572 -39.0350 main 1617 1541 P_____________ AL071998 12.1572 -39.0350 TS 60 990 0 19 279
1998259N10335 1998 63 NA NA GEORGES 1998-09-17 18:00:00 TS 12.3000 -40.0000 65 987 hurdat_atl main 1532 1460 O_____________ hurdat_atl AL071998 12.3000 -40.0000 HU 65 987 1 19 277
1998259N10335 1998 63 NA NA GEORGES 1998-09-17 21:00:00 TS 12.3998 -41.0002 main 1451 1383 P_____________ AL071998 12.3998 -41.0002 HU 67 985 1 20 276
1998259N10335 1998 63 NA NA GEORGES 1998-09-18 00:00:00 TS 12.5000 -42.0000 70 984 hurdat_atl main 1374 1310 O_____________ hurdat_atl AL071998 12.5000 -42.0000 HU 70 984 1 19 277
1998259N10335 1998 63 NA NA GEORGES 1998-09-18 03:00:00 TS 12.6422 -42.9650 main 1302 1259 P_____________ AL071998 12.6422 -42.9650 HU 75 980 1 19 279
1998259N10335 1998 63 NA NA GEORGES 1998-09-18 06:00:00 TS 12.8000 -43.9000 80 977 hurdat_atl main 1252 1199 O_____________ hurdat_atl AL071998 12.8000 -43.9000 HU 80 977 1 18 279
1998259N10335 1998 63 NA NA GEORGES 1998-09-18 09:00:00 TS 12.9422 -44.8152 main 1199 1162 P_____________ AL071998 12.9422 -44.8152 HU 82 975 1 18 280
1998259N10335 1998 63 NA NA GEORGES 1998-09-18 12:00:00 TS 13.1000 -45.7000 85 973 hurdat_atl main 1162 1125 O_____________ hurdat_atl AL071998 13.1000 -45.7000 HU 85 973 2 17 282
1998259N10335 1998 63 NA NA GEORGES 1998-09-18 15:00:00 TS 13.2922 -46.5650 main 1121 1090 P_____________ AL071998 13.2922 -46.5650 HU 87 971 2 17 284
1998259N10335 1998 63 NA NA GEORGES 1998-09-18 18:00:00 TS 13.5000 -47.4000 90 970 hurdat_atl main 1090 1067 O_____________ hurdat_atl AL071998 13.5000 -47.4000 HU 90 970 2 16 284
1998259N10335 1998 63 NA NA GEORGES 1998-09-18 21:00:00 TS 13.6922 -48.2077 main 1067 1048 P_____________ AL071998 13.6922 -48.2077 HU 90 970 2 16 284
1998259N10335 1998 63 NA NA GEORGES 1998-09-19 00:00:00 TS 13.9000 -49.0000 90 970 hurdat_atl main 1049 1037 O_____________ hurdat_atl AL071998 13.9000 -49.0000 HU 90 970 2 16 286
1998259N10335 1998 63 NA NA GEORGES 1998-09-19 03:00:00 TS 14.1424 -49.8150 main 1037 1028 P_____________ AL071998 14.1424 -49.8150 HU 92 967 2 16 288
1998259N10335 1998 63 NA NA GEORGES 1998-09-19 06:00:00 TS 14.4000 -50.6000 95 965 hurdat_atl main 1030 1024 O_____________ hurdat_atl AL071998 14.4000 -50.6000 HU 95 965 2 15 289
1998259N10335 1998 63 NA NA GEORGES 1998-09-19 09:00:00 TS 14.6496 -51.3077 main 1024 1024 P_____________ AL071998 14.6496 -51.3077 HU 102 959 3 14 290
1998259N10335 1998 63 NA NA GEORGES 1998-09-19 12:00:00 TS 14.9000 -52.0000 110 954 hurdat_atl main 1036 1025 O_____________ hurdat_atl AL071998 14.9000 -52.0000 HU 110 954 3 15 290
1998259N10335 1998 63 NA NA GEORGES 1998-09-19 15:00:00 TS 15.1649 -52.7500 main 1031 968 P_____________ AL071998 15.1649 -52.7500 HU 117 951 4 15 289
1998259N10335 1998 63 NA NA GEORGES 1998-09-19 18:00:00 TS 15.4000 -53.5000 125 949 hurdat_atl main 968 918 O_____________ hurdat_atl AL071998 15.4000 -53.5000 HU 125 949 4 15 286
1998259N10335 1998 63 NA NA GEORGES 1998-09-19 21:00:00 TS 15.5647 -54.2078 main 918 865 P_____________ AL071998 15.5647 -54.2078 HU 127 944 4 14 283
1998259N10335 1998 63 NA NA GEORGES 1998-09-20 00:00:00 TS 15.7000 -54.9000 130 939 hurdat_atl main 865 817 O_____________ hurdat_atl AL071998 15.7000 -54.9000 HU 130 939 4 14 282
1998259N10335 1998 63 NA NA GEORGES 1998-09-20 03:00:00 TS 15.8573 -55.6000 main 824 781 P_____________ AL071998 15.8573 -55.6000 HU 132 938 4 14 283
1998259N10335 1998 63 NA NA GEORGES 1998-09-20 06:00:00 TS 16.0000 -56.3000 135 937 hurdat_atl main 781 743 O_____________ hurdat_atl AL071998 16.0000 -56.3000 HU 135 937 4 14 281
1998259N10335 1998 63 NA NA GEORGES 1998-09-20 09:00:00 TS 16.1072 -56.9927 main 743 711 P_____________ AL071998 16.1072 -56.9927 HU 132 938 4 14 278
1998259N10335 1998 63 NA NA GEORGES 1998-09-20 12:00:00 TS 16.2000 -57.7000 130 939 hurdat_atl main 711 687 O_____________ hurdat_atl AL071998 16.2000 -57.7000 HU 130 939 4 14 278
1998259N10335 1998 63 NA NA GEORGES 1998-09-20 15:00:00 TS 16.2924 -58.4501 main 682 666 P_____________ AL071998 16.2924 -58.4501 HU 122 947 4 15 278
1998259N10335 1998 63 NA NA GEORGES 1998-09-20 18:00:00 TS 16.4000 -59.2000 115 956 hurdat_atl main 667 634 O_____________ hurdat_atl AL071998 16.4000 -59.2000 HU 115 956 4 14 280
1998259N10335 1998 63 NA NA GEORGES 1998-09-20 21:00:00 TS 16.5338 -59.9016 main 634 556 P_____________ AL071998 16.5338 -59.9016 HU 107 959 3 14 283
1998259N10335 1998 63 NA CS GEORGES 1998-09-21 00:00:00 TS 16.7000 -60.6000 100 963 hurdat_atl main 556 478 O_____________ hurdat_atl AL071998 16.7000 -60.6000 HU 100 963 3 14 285
1998259N10335 1998 63 NA CS GEORGES 1998-09-21 03:00:00 TS 16.8971 -61.3190 main 478 434 P_____________ AL071998 16.8971 -61.3190 HU 100 965 3 15 286
1998259N10335 1998 63 NA CS GEORGES 1998-09-21 04:30:00 TS 17.0000 -61.7000 100 966 hurdat_atl main 434 390 O_____________ hurdat_atl AL071998 17.0000 -61.7000 L HU 100 966 3 15 285
1998259N10335 1998 63 NA CS GEORGES 1998-09-21 06:00:00 TS 17.1000 -62.1000 100 966 hurdat_atl main 390 336 O_____________ hurdat_atl AL071998 17.1000 -62.1000 HU 100 966 3 15 283
1998259N10335 1998 63 NA CS GEORGES 1998-09-21 08:00:00 TS 17.2000 -62.6000 100 966 hurdat_atl main 336 317 O_____________ hurdat_atl AL071998 17.2000 -62.6000 L HU 100 966 3 15 282
1998259N10335 1998 63 NA CS GEORGES 1998-09-21 09:00:00 TS 17.2482 -62.8518 main 307 229 P_____________ AL071998 17.2482 -62.8518 HU 98 966 3 15 282
1998259N10335 1998 63 NA CS GEORGES 1998-09-21 12:00:00 TS 17.4000 -63.6000 95 966 hurdat_atl main 229 153 O_____________ hurdat_atl AL071998 17.4000 -63.6000 HU 95 966 2 14 284
1998259N10335 1998 63 NA CS GEORGES 1998-09-21 15:00:00 TS 17.5869 -64.3260 main 153 77 P_____________ AL071998 17.5869 -64.3260 HU 92 968 2 14 287
1998259N10335 1998 63 NA CS GEORGES 1998-09-21 18:00:00 TS 17.8000 -65.0000 90 970 hurdat_atl main 77 24 O_____________ hurdat_atl AL071998 17.8000 -65.0000 HU 90 970 2 13 290
1998259N10335 1998 63 NA CS GEORGES 1998-09-21 21:00:00 TS 18.0340 -65.5835 main 21 0 P_____________ AL071998 18.0340 -65.5835 HU 97 968 3 12 292
1998259N10335 1998 63 NA CS GEORGES 1998-09-21 22:00:00 TS 18.1000 -65.8000 100 968 hurdat_atl main 0 0 O_____________ hurdat_atl AL071998 18.1000 -65.8000 L HU 100 968 3 14 284
1998259N10335 1998 63 NA NA GEORGES 1998-09-22 00:00:00 TS 18.2000 -66.3000 90 970 hurdat_atl main 0 0 O_____________ hurdat_atl AL071998 18.2000 -66.3000 HU 90 970 2 13 272
1998259N10335 1998 63 NA NA GEORGES 1998-09-22 03:00:00 TS 18.1320 -66.8971 main 0 0 P_____________ AL071998 18.1320 -66.8971 HU 92 971 2 11 259
1998259N10335 1998 63 NA CS GEORGES 1998-09-22 06:00:00 TS 18.0000 -67.4000 95 972 hurdat_atl main 21 21 O_____________ hurdat_atl AL071998 18.0000 -67.4000 HU 95 972 2 8 268
1998259N10335 1998 63 NA CS GEORGES 1998-09-22 09:00:00 TS 18.1057 -67.7591 main 62 15 P_____________ AL071998 18.1057 -67.7591 HU 100 968 3 11 281
1998259N10335 1998 63 NA CS GEORGES 1998-09-22 12:00:00 TS 18.2000 -68.5000 105 964 hurdat_atl main 10 0 O_____________ hurdat_atl AL071998 18.2000 -68.5000 HU 105 964 3 15 276
1998259N10335 1998 63 NA CS GEORGES 1998-09-22 12:30:00 TS 18.2000 -68.7000 105 962 hurdat_atl main 0 0 O_____________ hurdat_atl AL071998 18.2000 -68.7000 L HU 105 962 3 16 279
1998259N10335 1998 63 NA CS GEORGES 1998-09-22 15:00:00 TS 18.3307 -69.3374 main 22 0 P_____________ AL071998 18.3307 -69.3374 HU 100 965 3 11 293
1998259N10335 1998 63 NA NA GEORGES 1998-09-22 18:00:00 TS 18.6000 -69.7000 95 970 hurdat_atl main 0 0 O_____________ hurdat_atl AL071998 18.6000 -69.7000 HU 95 970 2 9 294
1998259N10335 1998 63 NA NA GEORGES 1998-09-22 21:00:00 TS 18.7183 -70.2347 main 0 0 P_____________ AL071998 18.7183 -70.2347 HU 82 975 1 11 281
1998259N10335 1998 63 NA NA GEORGES 1998-09-23 00:00:00 TS 18.8000 -70.8000 70 980 hurdat_atl main 0 0 O_____________ hurdat_atl AL071998 18.8000 -70.8000 HU 70 980 1 12 279
1998259N10335 1998 63 NA NA GEORGES 1998-09-23 03:00:00 TS 18.8925 -71.4426 main 0 0 P_____________ AL071998 18.8925 -71.4426 HU 67 985 1 12 279
1998259N10335 1998 63 NA NA GEORGES 1998-09-23 06:00:00 TS 19.0000 -72.1000 65 990 hurdat_atl main 0 0 O_____________ hurdat_atl AL071998 19.0000 -72.1000 HU 65 990 1 12 281
1998259N10335 1998 63 NA NA GEORGES 1998-09-23 09:00:00 TS 19.1274 -72.7226 main 0 0 P_____________ AL071998 19.1274 -72.7226 HU 65 993 1 12 285
1998259N10335 1998 63 NA CS GEORGES 1998-09-23 12:00:00 TS 19.3000 -73.3000 65 996 hurdat_atl main 33 24 O_____________ hurdat_atl AL071998 19.3000 -73.3000 HU 65 996 1 12 291
1998259N10335 1998 63 NA CS GEORGES 1998-09-23 15:00:00 TS 19.5347 -73.8771 main 47 33 P_____________ AL071998 19.5347 -73.8771 HU 65 995 1 11 298
1998259N10335 1998 63 NA CS GEORGES 1998-09-23 18:00:00 TS 19.8000 -74.3000 65 994 hurdat_atl main 33 11 O_____________ hurdat_atl AL071998 19.8000 -74.3000 HU 65 994 1 7 313
1998259N10335 1998 63 NA CS GEORGES 1998-09-23 21:00:00 TS 20.0408 -74.4547 main 11 0 P_____________ AL071998 20.0408 -74.4547 HU 65 993 1 6 328
1998259N10335 1998 63 NA CS GEORGES 1998-09-23 21:30:00 TS 20.1000 -74.5000 65 993 hurdat_atl main 0 0 O_____________ hurdat_atl AL071998 20.1000 -74.5000 L HU 65 993 1 12 318
1998259N10335 1998 63 NA NA GEORGES 1998-09-24 00:00:00 TS 20.5000 -74.9000 65 992 hurdat_atl main 0 0 O_____________ hurdat_atl AL071998 20.5000 -74.9000 HU 65 992 1 12 305
1998259N10335 1998 63 NA NA GEORGES 1998-09-24 03:00:00 TS 20.7084 -75.4288 main 11 0 P_____________ AL071998 20.7084 -75.4288 HU 65 991 1 11 286
1998259N10335 1998 63 NA NA GEORGES 1998-09-24 06:00:00 TS 20.8000 -76.0000 65 991 hurdat_atl main 0 0 O_____________ hurdat_atl AL071998 20.8000 -76.0000 HU 65 991 1 12 286
1998259N10335 1998 63 NA NA GEORGES 1998-09-24 09:00:00 TS 21.0276 -76.6224 main 0 0 P_____________ AL071998 21.0276 -76.6224 HU 67 990 1 12 294
1998259N10335 1998 63 NA NA GEORGES 1998-09-24 12:00:00 TS 21.3000 -77.2000 70 990 hurdat_atl main 0 0 O_____________ hurdat_atl AL071998 21.3000 -77.2000 HU 70 990 1 11 301
1998259N10335 1998 63 NA NA GEORGES 1998-09-24 15:00:00 TS 21.5770 -77.6155 main 0 0 P_____________ AL071998 21.5770 -77.6155 HU 72 989 1 10 309
1998259N10335 1998 63 NA NA GEORGES 1998-09-24 18:00:00 TS 21.9000 -78.0000 75 989 hurdat_atl main 0 0 O_____________ hurdat_atl AL071998 21.9000 -78.0000 HU 75 989 1 11 312
1998259N10335 1998 63 NA NA GEORGES 1998-09-24 21:00:00 TS 22.2923 -78.4701 main 0 0 P_____________ AL071998 22.2923 -78.4701 HU 77 988 1 12 311
1998259N10335 1998 63 NA NA GEORGES 1998-09-25 00:00:00 TS 22.7000 -79.0000 80 987 hurdat_atl main 44 30 O_____________ hurdat_atl AL071998 22.7000 -79.0000 HU 80 987 1 13 307
1998259N10335 1998 63 NA NA GEORGES 1998-09-25 03:00:00 TS 23.0725 -79.5925 main 44 35 P_____________ AL071998 23.0725 -79.5925 HU 82 986 1 13 302
1998259N10335 1998 63 NA NA GEORGES 1998-09-25 06:00:00 TS 23.4000 -80.2000 85 986 hurdat_atl main 54 49 O_____________ hurdat_atl AL071998 23.4000 -80.2000 HU 85 986 2 12 296
1998259N10335 1998 63 NA NA GEORGES 1998-09-25 09:00:00 TS 23.6129 -80.7811 main 67 67 P_____________ AL071998 23.6129 -80.7811 HU 87 984 2 11 296
1998259N10335 1998 63 NA NA GEORGES 1998-09-25 12:00:00 TS 23.9000 -81.3000 90 982 hurdat_atl main 89 89 O_____________ hurdat_atl AL071998 23.9000 -81.3000 HU 90 982 2 12 314
1998259N10335 1998 63 NA NA GEORGES 1998-09-25 15:00:00 TS 24.4383 -81.7094 main 98 90 P_____________ AL071998 24.4383 -81.7094 HU 90 981 2 13 323
1998259N10335 1998 63 NA NA GEORGES 1998-09-25 15:30:00 TS 24.5000 -81.8000 90 981 hurdat_atl main 97 97 O_____________ hurdat_atl AL071998 24.5000 -81.8000 L HU 90 981 2 13 284
1998259N10335 1998 63 NA GM GEORGES 1998-09-25 18:00:00 TS 24.6000 -82.4000 90 975 hurdat_atl main 138 138 O_____________ hurdat_atl AL071998 24.6000 -82.4000 HU 90 975 2 11 281
1998259N10335 1998 63 NA GM GEORGES 1998-09-25 21:00:00 TS 24.6906 -82.9091 main 180 180 P_____________ AL071998 24.6906 -82.9091 HU 90 974 2 8 284
1998259N10335 1998 63 NA GM GEORGES 1998-09-26 00:00:00 TS 24.8000 -83.3000 90 974 hurdat_atl main 202 202 O_____________ hurdat_atl AL071998 24.8000 -83.3000 HU 90 974 2 8 291
1998259N10335 1998 63 NA GM GEORGES 1998-09-26 03:00:00 TS 24.9774 -83.7501 main 233 233 P_____________ AL071998 24.9774 -83.7501 HU 90 974 2 9 296
1998259N10335 1998 63 NA GM GEORGES 1998-09-26 06:00:00 TS 25.2000 -84.2000 90 975 hurdat_atl main 260 260 O_____________ hurdat_atl AL071998 25.2000 -84.2000 HU 90 975 2 9 300
1998259N10335 1998 63 NA GM GEORGES 1998-09-26 09:00:00 TS 25.4424 -84.6576 main 285 279 P_____________ AL071998 25.4424 -84.6576 HU 90 974 2 10 302
1998259N10335 1998 63 NA GM GEORGES 1998-09-26 12:00:00 TS 25.7000 -85.1000 90 974 hurdat_atl main 304 304 O_____________ hurdat_atl AL071998 25.7000 -85.1000 HU 90 974 2 9 302
1998259N10335 1998 63 NA GM GEORGES 1998-09-26 15:00:00 TS 25.9274 -85.5228 main 327 327 P_____________ AL071998 25.9274 -85.5228 HU 90 974 2 9 305
1998259N10335 1998 63 NA GM GEORGES 1998-09-26 18:00:00 TS 26.2000 -85.9000 90 975 hurdat_atl main 349 349 O_____________ hurdat_atl AL071998 26.2000 -85.9000 HU 90 975 2 9 317
1998259N10335 1998 63 NA GM GEORGES 1998-09-26 21:00:00 TS 26.5923 -86.2076 main 354 320 P_____________ AL071998 26.5923 -86.2076 HU 92 972 2 10 326
1998259N10335 1998 63 NA GM GEORGES 1998-09-27 00:00:00 TS 27.0000 -86.5000 95 969 hurdat_atl main 320 294 O_____________ hurdat_atl AL071998 27.0000 -86.5000 HU 95 969 2 9 322
1998259N10335 1998 63 NA GM GEORGES 1998-09-27 03:00:00 TS 27.3150 -86.8502 main 287 242 P_____________ AL071998 27.3150 -86.8502 HU 95 969 2 9 314
1998259N10335 1998 63 NA GM GEORGES 1998-09-27 06:00:00 TS 27.6000 -87.2000 95 970 hurdat_atl main 242 198 O_____________ hurdat_atl AL071998 27.6000 -87.2000 HU 95 970 2 8 315
1998259N10335 1998 63 NA GM GEORGES 1998-09-27 09:00:00 TS 27.8999 -87.5152 main 198 154 P_____________ AL071998 27.8999 -87.5152 HU 95 966 2 8 318
1998259N10335 1998 63 NA GM GEORGES 1998-09-27 12:00:00 TS 28.2000 -87.8000 95 962 hurdat_atl main 154 110 O_____________ hurdat_atl AL071998 28.2000 -87.8000 HU 95 962 2 8 321
1998259N10335 1998 63 NA GM GEORGES 1998-09-27 15:00:00 TS 28.5075 -88.0800 main 110 75 P_____________ AL071998 28.5075 -88.0800 HU 95 962 2 7 324
1998259N10335 1998 63 NA GM GEORGES 1998-09-27 18:00:00 TS 28.8000 -88.3000 95 962 hurdat_atl main 75 59 O_____________ hurdat_atl AL071998 28.8000 -88.3000 HU 95 962 2 6 331
1998259N10335 1998 63 NA GM GEORGES 1998-09-27 21:00:00 TS 29.0574 -88.4228 main 58 48 P_____________ AL071998 29.0574 -88.4228 HU 95 961 2 5 340
1998259N10335 1998 63 NA GM GEORGES 1998-09-28 00:00:00 TS 29.3000 -88.5000 95 961 hurdat_atl main 53 51 O_____________ hurdat_atl AL071998 29.3000 -88.5000 HU 95 961 2 5 343
1998259N10335 1998 63 NA GM GEORGES 1998-09-28 03:00:00 TS 29.5379 -88.5987 main 58 55 P_____________ AL071998 29.5379 -88.5987 HU 92 962 2 5 341
1998259N10335 1998 63 NA GM GEORGES 1998-09-28 06:00:00 TS 29.8000 -88.7000 90 964 hurdat_atl main 55 14 O_____________ hurdat_atl AL071998 29.8000 -88.7000 HU 90 964 2 7 343
1998259N10335 1998 63 NA GM GEORGES 1998-09-28 09:00:00 TS 30.2120 -88.8387 main 14 0 P_____________ AL071998 30.2120 -88.8387 HU 90 964 2 7 344
1998259N10335 1998 63 NA GM GEORGES 1998-09-28 11:30:00 TS 30.4000 -88.9000 90 964 hurdat_atl main 0 0 O_____________ hurdat_atl AL071998 30.4000 -88.9000 L HU 90 964 2 4 342
1998259N10335 1998 63 NA GM GEORGES 1998-09-28 12:00:00 TS 30.4000 -88.9000 90 965 hurdat_atl main 0 0 O_____________ hurdat_atl AL071998 30.4000 -88.9000 HU 90 965 2 1 0
1998259N10335 1998 63 NA NA GEORGES 1998-09-28 15:00:00 TS 30.4821 -88.8943 main 0 0 P_____________ AL071998 30.4821 -88.8943 HU 77 974 1 2 8
1998259N10335 1998 63 NA NA GEORGES 1998-09-28 18:00:00 TS 30.6000 -88.9000 65 984 hurdat_atl main 0 0 O_____________ hurdat_atl AL071998 30.6000 -88.9000 HU 65 984 1 2 327
1998259N10335 1998 63 NA NA GEORGES 1998-09-28 21:00:00 TS 30.6149 -88.9950 main 0 0 P_____________ AL071998 30.6149 -88.9950 HU 57 985 0 1 270
1998259N10335 1998 63 NA NA GEORGES 1998-09-29 00:00:00 TS 30.6000 -89.0000 50 986 hurdat_atl main 0 0 O_____________ hurdat_atl AL071998 30.6000 -89.0000 TS 50 986 0 2 101
1998259N10335 1998 63 NA NA GEORGES 1998-09-29 03:00:00 TS 30.5703 -88.7298 main 0 0 P_____________ AL071998 30.5703 -88.7298 TS 45 989 0 5 90
1998259N10335 1998 63 NA NA GEORGES 1998-09-29 06:00:00 TS 30.6000 -88.4000 40 992 hurdat_atl main 0 0 O_____________ hurdat_atl AL071998 30.6000 -88.4000 TS 40 992 0 5 60
1998259N10335 1998 63 NA NA GEORGES 1998-09-29 09:00:00 TS 30.8073 -88.2502 main 0 0 P_____________ AL071998 30.8073 -88.2502 TS 35 993 0 5 33
1998259N10335 1998 63 NA NA GEORGES 1998-09-29 12:00:00 TS 31.0000 -88.1000 30 994 hurdat_atl main 0 0 O_____________ hurdat_atl AL071998 31.0000 -88.1000 TD 30 994 -1 4 64
1998259N10335 1998 63 NA NA GEORGES 1998-09-29 15:00:00 TS 30.9876 -87.8223 main 0 0 P_____________ AL071998 30.9876 -87.8223 TD 30 995 -1 5 101
1998259N10335 1998 63 NA NA GEORGES 1998-09-29 18:00:00 TS 30.9000 -87.5000 30 996 hurdat_atl main 0 0 O_____________ hurdat_atl AL071998 30.9000 -87.5000 TD 30 996 -1 6 104
1998259N10335 1998 63 NA NA GEORGES 1998-09-29 21:00:00 TS 30.8499 -87.2000 main 0 0 P_____________ AL071998 30.8499 -87.2000 TD 30 997 -1 5 101
1998259N10335 1998 63 NA NA GEORGES 1998-09-30 00:00:00 TS 30.8000 -86.9000 30 998 hurdat_atl main 0 0 O_____________ hurdat_atl AL071998 30.8000 -86.9000 TD 30 998 -1 5 102
1998259N10335 1998 63 NA NA GEORGES 1998-09-30 03:00:00 TS 30.7422 -86.6225 main 0 0 P_____________ AL071998 30.7422 -86.6225 TD 30 999 -1 5 101
1998259N10335 1998 63 NA NA GEORGES 1998-09-30 06:00:00 TS 30.7000 -86.3000 30 1000 hurdat_atl main 0 0 O_____________ hurdat_atl AL071998 30.7000 -86.3000 TD 30 1000 -1 6 94
1998259N10335 1998 63 NA NA GEORGES 1998-09-30 09:00:00 TS 30.6998 -85.8952 main 0 0 P_____________ AL071998 30.6998 -85.8952 TD 27 1001 -1 8 90
1998259N10335 1998 63 NA NA GEORGES 1998-09-30 12:00:00 TS 30.7000 -85.4000 25 1002 hurdat_atl main 0 0 O_____________ hurdat_atl AL071998 30.7000 -85.4000 TD 25 1002 -1 9 93
1998259N10335 1998 63 NA NA GEORGES 1998-09-30 15:00:00 TS 30.6575 -84.8224 main 0 0 P_____________ AL071998 30.6575 -84.8224 TD 25 1003 -1 10 96
1998259N10335 1998 63 NA NA GEORGES 1998-09-30 18:00:00 TS 30.6000 -84.2000 25 1004 hurdat_atl main 0 0 O_____________ hurdat_atl AL071998 30.6000 -84.2000 TD 25 1004 -1 11 96
1998259N10335 1998 63 NA NA GEORGES 1998-09-30 21:00:00 TS 30.5422 -83.5999 main 0 0 P_____________ AL071998 30.5422 -83.5999 TD 25 1005 -1 10 96
1998259N10335 1998 63 NA NA GEORGES 1998-10-01 00:00:00 TS 30.5000 -83.0000 25 1006 hurdat_atl main 0 0 O_____________ hurdat_atl AL071998 30.5000 -83.0000 TD 25 1006 -1 10 93
1998259N10335 1998 63 NA NA GEORGES 1998-10-01 03:00:00 TS 30.4906 -82.4001 main 0 0 P_____________ AL071998 30.4906 -82.4001 TD 22 1007 -1 10 90
1998259N10335 1998 63 NA NA GEORGES 1998-10-01 06:00:00 TS 30.5000 -81.8000 20 1008 hurdat_atl main 0 O_____________ hurdat_atl AL071998 30.5000 -81.8000 TD 20 1008 -1 10 89

IBTrACS Databaseについて

本データベースは、米国NOAAが公開する1842年以降の世界の熱帯低気圧のベストトラックデータアーカイブInternational Best Track Archive for Climate Stewardship (IBTrACS)を、ウェブで閲覧しやすい形式に変換したものです。

最終更新日:2021-12-06